Time;durP1;ratioP1;P1;durP2;ratioP2;P2;SDS_P1;SDS_P2;PMS_P1;PMS_P2;Temp;Humidity;BMP_temperature;BMP_pressure;BME280_temperature;BME280_humidity;BME280_pressure;Samples;Min_cycle;Max_cycle;Signal;HPM_P1;HPM_P2
2024/04/16 00:00:32;;;;;;;;;;;;;;;;;;5506103;26;5088;-56
2024/04/16 00:02:57;;;;;;;;;;;;;;;;;;5492646;26;5058;-56
2024/04/16 00:05:22;;;;;;;;;;;;;;;;;;5517905;26;1836;-57
2024/04/16 00:07:48;;;;;;;;;;;;;;;;;;5520754;26;4515;-57
2024/04/16 00:10:13;;;;;;;;;;;;;;;;;;5463303;26;5182;-57
2024/04/16 00:12:38;;;;;;;;;;;;;;;;;;5520454;26;4513;-57
2024/04/16 00:15:04;;;;;;;;;;;;;;;;;;5513341;26;5134;-57
2024/04/16 00:17:29;;;;;;;;;;;;;;;;;;5508599;26;1589;-57
2024/04/16 00:19:55;;;;;;;;;;;;;;;;;;5510066;26;5112;-57
2024/04/16 00:22:20;;;;;;;;;;;;;;;;;;5504993;25;4526;-58
2024/04/16 00:24:46;;;;;;;;;;;;;;;;;;5504455;26;5203;-58
2024/04/16 00:27:11;;;;;;;;;;;;;;;;;;5516782;26;5181;-57
2024/04/16 00:29:36;;;;;;;;;;;;;;;;;;5511723;26;1269;-57
2024/04/16 00:32:02;;;;;;;;;;;;;;;;;;5499467;26;5072;-57
2024/04/16 00:34:27;;;;;;;;;;;;;;;;;;5483668;26;4687;-57
2024/04/16 00:36:52;;;;;;;;;;;;;;;;;;5519727;25;4754;-57
2024/04/16 00:39:17;;;;;;;;;;;;;;;;;;5505912;26;5214;-57
2024/04/16 00:41:43;;;;;;;;;;;;;;;;;;5520846;26;1389;-57
2024/04/16 00:44:08;;;;;;;;;;;;;;;;;;5517937;26;5029;-56
2024/04/16 00:46:34;;;;;;;;;;;;;;;;;;5510353;26;5167;-56
2024/04/16 00:48:59;;;;;;;;;;;;;;;;;;5507770;26;5108;-56
2024/04/16 00:51:24;;;;;;;;;;;;;;;;;;5501283;26;5061;-56
2024/04/16 00:53:50;;;;;;;;;;;;;;;;;;5482591;26;5222;-57
2024/04/16 00:56:15;;;;;;;;;;;;;;;;;;5511504;26;1259;-56
2024/04/16 00:58:40;;;;;;;;;;;;;;;;;;5500805;26;5133;-57
2024/04/16 01:01:06;;;;;;;;;;;;;;;;;;5512940;26;5237;-56
2024/04/16 01:03:31;;;;;;;;;;;;;;;;;;5507923;26;5366;-56
2024/04/16 01:05:56;;;;;;;;;;;;;;;;;;5511496;26;4566;-57
2024/04/16 01:08:22;;;;;;;;;;;;;;;;;;5506846;26;1364;-57
2024/04/16 01:10:47;;;;;;;;;;;;;;;;;;5517413;26;5059;-56
2024/04/16 01:13:12;;;;;;;;;;;;;;;;;;5509765;26;5098;-56
2024/04/16 01:15:38;;;;;;;;;;;;;;;;;;5509606;25;5201;-56
2024/04/16 01:18:05;;;;;;;;;;;;;;;;;;5506269;26;5066;-56
2024/04/16 01:20:31;;;;;;;;;;;;;;;;;;5519906;26;1245;-57
2024/04/16 01:22:56;;;;;;;;;;;;;;;;;;5519048;25;5154;-56
2024/04/16 01:25:21;;;;;;;;;;;;;;;;;;5511688;26;5302;-56
2024/04/16 01:27:47;;;;;;;;;;;;;;;;;;5519471;26;5063;-57
2024/04/16 01:30:12;;;;;;;;;;;;;;;;;;5470810;26;5126;-56
2024/04/16 01:32:37;;;;;;;;;;;;;;;;;;5506516;26;1308;-56
2024/04/16 01:35:03;;;;;;;;;;;;;;;;;;5519278;26;4713;-56
2024/04/16 01:37:29;;;;;;;;;;;;;;;;;;5511267;25;5069;-56
2024/04/16 01:39:54;;;;;;;;;;;;;;;;;;5517250;26;5063;-56
2024/04/16 01:42:19;;;;;;;;;;;;;;;;;;5513773;26;5043;-56
2024/04/16 01:44:56;;;;;;;;;;;;;;;;;;5514366;26;1836;-56
2024/04/16 01:47:21;;;;;;;;;;;;;;;;;;5509544;26;5069;-57
2024/04/16 01:49:47;;;;;;;;;;;;;;;;;;5496434;26;5341;-56
2024/04/16 01:52:12;;;;;;;;;;;;;;;;;;5508263;25;4654;-58
2024/04/16 01:54:37;;;;;;;;;;;;;;;;;;5512499;26;5180;-58
2024/04/16 01:57:03;;;;;;;;;;;;;;;;;;5511038;26;5086;-58
2024/04/16 01:59:28;;;;;;;;;;;;;;;;;;5502101;26;1151;-58
2024/04/16 02:01:54;;;;;;;;;;;;;;;;;;5508046;26;4615;-58
2024/04/16 02:04:19;;;;;;;;;;;;;;;;;;5510898;26;5145;-58
2024/04/16 02:06:44;;;;;;;;;;;;;;;;;;5512713;25;5104;-58
2024/04/16 02:09:10;;;;;;;;;;;;;;;;;;5504554;26;5162;-58
2024/04/16 02:11:35;;;;;;;;;;;;;;;;;;5509200;26;1439;-58
2024/04/16 02:14:00;;;;;;;;;;;;;;;;;;5514354;26;5126;-58
2024/04/16 02:16:26;;;;;;;;;;;;;;;;;;5507681;26;5062;-58
2024/04/16 02:18:51;;;;;;;;;;;;;;;;;;5499229;25;4795;-59
2024/04/16 02:21:16;;;;;;;;;;;;;;;;;;5511630;25;5200;-56
2024/04/16 02:23:42;;;;;;;;;;;;;;;;;;5500033;26;1859;-56
2024/04/16 02:26:07;;;;;;;;;;;;;;;;;;5510137;26;4769;-58
2024/04/16 02:28:33;;;;;;;;;;;;;;;;;;5499749;26;4978;-59
2024/04/16 02:30:58;;;;;;;;;;;;;;;;;;5494509;26;5129;-56
2024/04/16 02:33:23;;;;;;;;;;;;;;;;;;5511744;26;5304;-56
2024/04/16 02:35:49;;;;;;;;;;;;;;;;;;5498608;26;5293;-56
2024/04/16 02:38:14;;;;;;;;;;;;;;;;;;5505464;26;1334;-56
2024/04/16 02:40:40;;;;;;;;;;;;;;;;;;5502353;26;5083;-56
2024/04/16 02:43:05;;;;;;;;;;;;;;;;;;5511318;26;5227;-56
2024/04/16 02:45:30;;;;;;;;;;;;;;;;;;5515318;25;4680;-57
2024/04/16 02:47:56;;;;;;;;;;;;;;;;;;5518290;26;4613;-56
2024/04/16 02:50:22;;;;;;;;;;;;;;;;;;5518315;25;1261;-59
2024/04/16 02:52:47;;;;;;;;;;;;;;;;;;5514182;26;5018;-58
2024/04/16 02:55:14;;;;;;;;;;;;;;;;;;5507131;25;5155;-57
2024/04/16 02:57:39;;;;;;;;;;;;;;;;;;5482932;26;5091;-58
2024/04/16 03:00:05;;;;;;;;;;;;;;;;;;5509834;26;5395;-57
2024/04/16 03:02:30;;;;;;;;;;;;;;;;;;5471241;26;1286;-58
2024/04/16 03:04:56;;;;;;;;;;;;;;;;;;5474402;26;5289;-58
2024/04/16 03:07:21;;;;;;;;;;;;;;;;;;5513377;25;5088;-58
2024/04/16 03:09:47;;;;;;;;;;;;;;;;;;5508990;25;5101;-58
2024/04/16 03:12:12;;;;;;;;;;;;;;;;;;5513925;25;5180;-57
2024/04/16 03:14:38;;;;;;;;;;;;;;;;;;5517734;26;1847;-58
2024/04/16 03:17:04;;;;;;;;;;;;;;;;;;5502936;26;4970;-58
2024/04/16 03:19:29;;;;;;;;;;;;;;;;;;5503814;26;4618;-58
2024/04/16 03:21:54;;;;;;;;;;;;;;;;;;5503511;25;4542;-58
2024/04/16 03:24:20;;;;;;;;;;;;;;;;;;5505565;26;5129;-57
2024/04/16 03:26:45;;;;;;;;;;;;;;;;;;5498364;26;3274;-58
2024/04/16 03:29:10;;;;;;;;;;;;;;;;;;5498684;26;4998;-57
2024/04/16 03:31:36;;;;;;;;;;;;;;;;;;5470212;26;5090;-57
2024/04/16 03:34:01;;;;;;;;;;;;;;;;;;5489394;26;5247;-58
2024/04/16 03:36:26;;;;;;;;;;;;;;;;;;5511545;26;5139;-70
2024/04/16 03:38:52;;;;;;;;;;;;;;;;;;5501902;26;5106;-64
2024/04/16 03:41:17;;;;;;;;;;;;;;;;;;5496440;26;3635;-57
2024/04/16 03:43:42;;;;;;;;;;;;;;;;;;5498962;26;5086;-58
2024/04/16 03:46:08;;;;;;;;;;;;;;;;;;5515639;25;4506;-61
2024/04/16 03:48:34;;;;;;;;;;;;;;;;;;5513804;26;4696;-61
2024/04/16 03:50:59;;;;;;;;;;;;;;;;;;5510105;26;5075;-60
2024/04/16 03:53:24;;;;;;;;;;;;;;;;;;5507413;26;1386;-60
2024/04/16 03:55:50;;;;;;;;;;;;;;;;;;5496383;26;4503;-60
2024/04/16 03:58:15;;;;;;;;;;;;;;;;;;5514806;25;5089;-61
2024/04/16 04:03:24;;;;;;;;;;;;;;;;;;5479790;26;5149;-60
2024/04/16 04:05:50;;;;;;;;;;;;;;;;;;5520018;26;5771;-60
2024/04/16 04:08:15;;;;;;;;;;;;;;;;;;5515171;25;1390;-60
2024/04/16 04:10:43;;;;;;;;;;;;;;;;;;5502792;26;5262;-60
2024/04/16 04:13:09;;;;;;;;;;;;;;;;;;5509984;25;4718;-60
2024/04/16 04:15:37;;;;;;;;;;;;;;;;;;5512597;26;4965;-61
2024/04/16 04:18:03;;;;;;;;;;;;;;;;;;5515139;25;5300;-60
2024/04/16 04:20:28;;;;;;;;;;;;;;;;;;5515942;26;1709;-60
2024/04/16 04:22:54;;;;;;;;;;;;;;;;;;5515957;25;5069;-60
2024/04/16 04:25:20;;;;;;;;;;;;;;;;;;5506812;26;4551;-60
2024/04/16 04:27:45;;;;;;;;;;;;;;;;;;5506632;25;4625;-61
2024/04/16 04:30:10;;;;;;;;;;;;;;;;;;5518507;26;5083;-60
2024/04/16 04:32:36;;;;;;;;;;;;;;;;;;5519651;25;1356;-61
2024/04/16 04:35:01;;;;;;;;;;;;;;;;;;5518927;26;5177;-60
2024/04/16 04:37:27;;;;;;;;;;;;;;;;;;5475979;26;5201;-61
2024/04/16 04:39:52;;;;;;;;;;;;;;;;;;5517147;26;5074;-59
2024/04/16 04:42:18;;;;;;;;;;;;;;;;;;5514402;26;5101;-59
2024/04/16 04:44:43;;;;;;;;;;;;;;;;;;5498790;26;1876;-61
2024/04/16 04:47:08;;;;;;;;;;;;;;;;;;5512928;25;5549;-59
2024/04/16 04:49:34;;;;;;;;;;;;;;;;;;5515408;26;5222;-58
2024/04/16 04:51:59;;;;;;;;;;;;;;;;;;5509146;25;5168;-58
2024/04/16 04:54:24;;;;;;;;;;;;;;;;;;5464626;26;5036;-57
2024/04/16 04:56:50;;;;;;;;;;;;;;;;;;5507435;26;4643;-57
2024/04/16 04:59:15;;;;;;;;;;;;;;;;;;5514054;26;1365;-57
2024/04/16 05:01:41;;;;;;;;;;;;;;;;;;5500516;26;5080;-57
2024/04/16 05:04:06;;;;;;;;;;;;;;;;;;5497522;26;5277;-57
2024/04/16 05:06:32;;;;;;;;;;;;;;;;;;5496005;26;5050;-57
2024/04/16 05:08:58;;;;;;;;;;;;;;;;;;5469399;26;5209;-57
2024/04/16 05:11:23;;;;;;;;;;;;;;;;;;5465042;26;1529;-57
2024/04/16 05:13:48;;;;;;;;;;;;;;;;;;5494110;26;5038;-57
2024/04/16 05:16:14;;;;;;;;;;;;;;;;;;5469315;26;5110;-56
2024/04/16 05:18:39;;;;;;;;;;;;;;;;;;5511334;26;5150;-56
2024/04/16 05:21:05;;;;;;;;;;;;;;;;;;5505009;25;4898;-56
2024/04/16 05:23:30;;;;;;;;;;;;;;;;;;5468095;26;1281;-56
2024/04/16 05:25:56;;;;;;;;;;;;;;;;;;5447003;26;5421;-56
2024/04/16 05:28:23;;;;;;;;;;;;;;;;;;5448423;26;5298;-55
2024/04/16 05:30:48;;;;;;;;;;;;;;;;;;5477246;26;5230;-56
2024/04/16 05:33:14;;;;;;;;;;;;;;;;;;5456339;26;4706;-56
2024/04/16 05:35:39;;;;;;;;;;;;;;;;;;5446901;26;1254;-57
2024/04/16 05:38:04;;;;;;;;;;;;;;;;;;5445371;26;5071;-57
2024/04/16 05:40:30;;;;;;;;;;;;;;;;;;5456655;26;5127;-56
2024/04/16 05:42:56;;;;;;;;;;;;;;;;;;5452460;26;4660;-55
2024/04/16 05:45:21;;;;;;;;;;;;;;;;;;5455478;26;5192;-56
2024/04/16 05:47:46;;;;;;;;;;;;;;;;;;5463562;26;1370;-56
2024/04/16 05:50:12;;;;;;;;;;;;;;;;;;5465929;26;4792;-56
2024/04/16 05:52:37;;;;;;;;;;;;;;;;;;5395835;26;5122;-56
2024/04/16 05:55:03;;;;;;;;;;;;;;;;;;5465430;26;5200;-56
2024/04/16 05:57:29;;;;;;;;;;;;;;;;;;5453520;26;5387;-56
2024/04/16 05:59:54;;;;;;;;;;;;;;;;;;5452302;26;5287;-56
2024/04/16 06:02:19;;;;;;;;;;;;;;;;;;5463096;26;1279;-55
2024/04/16 06:04:45;;;;;;;;;;;;;;;;;;5460110;26;4694;-56
2024/04/16 06:07:10;;;;;;;;;;;;;;;;;;5469029;26;5201;-55
2024/04/16 06:09:35;;;;;;;;;;;;;;;;;;5465996;26;5111;-56
2024/04/16 06:12:01;;;;;;;;;;;;;;;;;;5458154;26;5123;-55
2024/04/16 06:14:26;;;;;;;;;;;;;;;;;;5454698;26;1327;-56
2024/04/16 06:16:51;;;;;;;;;;;;;;;;;;5459350;26;5121;-55
2024/04/16 06:19:17;;;;;;;;;;;;;;;;;;5416551;26;4696;-56
2024/04/16 06:21:44;;;;;;;;;;;;;;;;;;5456859;26;5268;-56
2024/04/16 06:24:09;;;;;;;;;;;;;;;;;;5513397;26;5208;-55
2024/04/16 06:26:35;;;;;;;;;;;;;;;;;;5509238;26;1406;-56
2024/04/16 06:29:00;;;;;;;;;;;;;;;;;;5497595;25;4581;-56
2024/04/16 06:31:26;;;;;;;;;;;;;;;;;;5476696;26;5116;-55
2024/04/16 06:33:51;;;;;;;;;;;;;;;;;;5513659;26;4673;-56
2024/04/16 06:36:17;;;;;;;;;;;;;;;;;;5505445;26;4548;-56
2024/04/16 06:38:43;;;;;;;;;;;;;;;;;;5518191;26;1239;-56
2024/04/16 06:41:08;;;;;;;;;;;;;;;;;;5516938;26;5068;-56
2024/04/16 06:43:33;;;;;;;;;;;;;;;;;;5517093;25;5126;-56
2024/04/16 06:45:59;;;;;;;;;;;;;;;;;;5514028;26;5145;-55
2024/04/16 06:48:24;;;;;;;;;;;;;;;;;;5498082;26;4643;-56
2024/04/16 06:50:49;;;;;;;;;;;;;;;;;;5501665;26;4530;-56
2024/04/16 06:53:15;;;;;;;;;;;;;;;;;;5495546;26;1382;-56
2024/04/16 06:55:40;;;;;;;;;;;;;;;;;;5518657;26;5087;-56
2024/04/16 06:58:06;;;;;;;;;;;;;;;;;;5512047;26;5234;-56
2024/04/16 07:00:32;;;;;;;;;;;;;;;;;;5504269;26;5056;-55
2024/04/16 07:02:57;;;;;;;;;;;;;;;;;;5517641;25;4758;-55
2024/04/16 07:05:22;;;;;;;;;;;;;;;;;;5517847;26;1837;-56
2024/04/16 07:07:48;;;;;;;;;;;;;;;;;;5519686;26;4620;-56
2024/04/16 07:10:13;;;;;;;;;;;;;;;;;;5518289;26;5204;-56
2024/04/16 07:12:39;;;;;;;;;;;;;;;;;;5519745;26;4612;-56
2024/04/16 07:15:04;;;;;;;;;;;;;;;;;;5502016;25;5229;-56
2024/04/16 07:17:30;;;;;;;;;;;;;;;;;;5516274;26;1525;-55
2024/04/16 07:19:56;;;;;;;;;;;;;;;;;;5475683;26;4815;-56
2024/04/16 07:22:22;;;;;;;;;;;;;;;;;;5518461;26;5124;-56
2024/04/16 07:24:49;;;;;;;;;;;;;;;;;;5516189;26;5207;-55
2024/04/16 07:27:15;;;;;;;;;;;;;;;;;;5504150;26;5362;-55
2024/04/16 07:29:40;;;;;;;;;;;;;;;;;;5518849;26;2000;-56
2024/04/16 07:32:05;;;;;;;;;;;;;;;;;;5514358;25;5069;-55
2024/04/16 07:34:31;;;;;;;;;;;;;;;;;;5510135;26;5063;-56
2024/04/16 07:36:56;;;;;;;;;;;;;;;;;;5519017;26;5938;-56
2024/04/16 07:39:22;;;;;;;;;;;;;;;;;;5519864;26;4496;-55
2024/04/16 07:41:47;;;;;;;;;;;;;;;;;;5520182;26;1431;-55
2024/04/16 07:44:12;;;;;;;;;;;;;;;;;;5517956;26;5172;-56
2024/04/16 07:46:38;;;;;;;;;;;;;;;;;;5518735;25;5167;-56
2024/04/16 07:49:03;;;;;;;;;;;;;;;;;;5509252;26;4646;-55
2024/04/16 07:51:28;;;;;;;;;;;;;;;;;;5518974;26;5094;-56
2024/04/16 07:53:54;;;;;;;;;;;;;;;;;;5517273;25;5695;-55
2024/04/16 07:56:19;;;;;;;;;;;;;;;;;;5520069;26;1318;-56
2024/04/16 07:58:44;;;;;;;;;;;;;;;;;;5514766;26;5171;-55
2024/04/16 08:01:10;;;;;;;;;;;;;;;;;;5507430;26;5078;-56
2024/04/16 08:03:35;;;;;;;;;;;;;;;;;;5506158;26;4797;-55
2024/04/16 08:06:00;;;;;;;;;;;;;;;;;;5461358;26;4586;-56
2024/04/16 08:08:26;;;;;;;;;;;;;;;;;;5514546;26;1275;-56
2024/04/16 08:10:51;;;;;;;;;;;;;;;;;;5517216;26;4545;-56
2024/04/16 08:13:17;;;;;;;;;;;;;;;;;;5519277;25;5091;-56
2024/04/16 08:15:45;;;;;;;;;;;;;;;;;;5509809;26;5100;-56
2024/04/16 08:18:10;;;;;;;;;;;;;;;;;;5519149;26;5186;-56
2024/04/16 08:20:36;;;;;;;;;;;;;;;;;;5480943;26;1808;-55
2024/04/16 08:23:01;;;;;;;;;;;;;;;;;;5519211;26;5156;-55
2024/04/16 08:25:26;;;;;;;;;;;;;;;;;;5514486;26;5135;-55
2024/04/16 08:27:52;;;;;;;;;;;;;;;;;;5519371;26;5068;-55
2024/04/16 08:30:17;;;;;;;;;;;;;;;;;;5513110;26;5276;-55
2024/04/16 08:32:45;;;;;;;;;;;;;;;;;;5504932;26;1187;-55
2024/04/16 08:35:11;;;;;;;;;;;;;;;;;;5483214;26;5317;-56
2024/04/16 08:37:36;;;;;;;;;;;;;;;;;;5517868;26;5133;-55
2024/04/16 08:40:02;;;;;;;;;;;;;;;;;;5509916;26;5150;-56
2024/04/16 08:42:27;;;;;;;;;;;;;;;;;;5509800;25;4666;-56
2024/04/16 08:44:53;;;;;;;;;;;;;;;;;;5482917;26;5133;-54
2024/04/16 08:47:19;;;;;;;;;;;;;;;;;;5505461;26;1514;-55
2024/04/16 08:49:44;;;;;;;;;;;;;;;;;;5483238;26;5068;-55
2024/04/16 08:52:10;;;;;;;;;;;;;;;;;;5516917;26;5196;-55
2024/04/16 08:54:35;;;;;;;;;;;;;;;;;;5511186;25;5180;-55
2024/04/16 08:57:00;;;;;;;;;;;;;;;;;;5475418;26;5098;-55
2024/04/16 08:59:26;;;;;;;;;;;;;;;;;;5468630;26;1442;-56
2024/04/16 09:01:51;;;;;;;;;;;;;;;;;;5518982;26;5055;-55
2024/04/16 09:04:16;;;;;;;;;;;;;;;;;;5486120;26;5720;-56
2024/04/16 09:06:42;;;;;;;;;;;;;;;;;;5518353;25;5096;-56
2024/04/16 09:09:07;;;;;;;;;;;;;;;;;;5479188;26;5150;-56
2024/04/16 09:11:33;;;;;;;;;;;;;;;;;;5472609;26;1250;-55
2024/04/16 09:13:58;;;;;;;;;;;;;;;;;;5505178;26;4969;-56
2024/04/16 09:16:24;;;;;;;;;;;;;;;;;;5511274;26;5078;-55
2024/04/16 09:18:49;;;;;;;;;;;;;;;;;;5484665;26;4684;-56
2024/04/16 09:21:15;;;;;;;;;;;;;;;;;;5516231;26;5082;-55
2024/04/16 09:23:41;;;;;;;;;;;;;;;;;;5459849;26;1278;-56
2024/04/16 09:26:13;;;;;;;;;;;;;;;;;;5465717;26;5162;-56
2024/04/16 09:28:38;;;;;;;;;;;;;;;;;;5458938;26;4691;-56
2024/04/16 09:31:03;;;;;;;;;;;;;;;;;;5430611;26;5143;-56
2024/04/16 09:33:31;;;;;;;;;;;;;;;;;;5426977;26;4676;-56
2024/04/16 09:35:56;;;;;;;;;;;;;;;;;;5457426;26;5228;-55
2024/04/16 09:38:21;;;;;;;;;;;;;;;;;;5451201;26;1419;-55
2024/04/16 09:40:47;;;;;;;;;;;;;;;;;;5463730;26;5085;-55
2024/04/16 09:43:12;;;;;;;;;;;;;;;;;;5409676;26;4617;-55
2024/04/16 09:45:37;;;;;;;;;;;;;;;;;;5455884;26;5212;-56
2024/04/16 09:48:03;;;;;;;;;;;;;;;;;;5445842;26;4655;-55
2024/04/16 09:50:29;;;;;;;;;;;;;;;;;;5424280;26;2969;-55
2024/04/16 09:52:54;;;;;;;;;;;;;;;;;;5446715;26;5202;-55
2024/04/16 09:55:23;;;;;;;;;;;;;;;;;;5466312;26;5173;-56
2024/04/16 09:57:48;;;;;;;;;;;;;;;;;;5457989;26;5274;-55
2024/04/16 10:00:14;;;;;;;;;;;;;;;;;;5458540;26;5279;-55
2024/04/16 10:02:39;;;;;;;;;;;;;;;;;;5467045;26;1911;-56
2024/04/16 10:05:05;;;;;;;;;;;;;;;;;;5414961;26;5059;-54
2024/04/16 10:07:30;;;;;;;;;;;;;;;;;;5435960;26;4628;-55
2024/04/16 10:09:55;;;;;;;;;;;;;;;;;;5447644;26;4673;-55
2024/04/16 10:12:21;;;;;;;;;;;;;;;;;;5456273;26;5700;-54
2024/04/16 10:14:47;;;;;;;;;;;;;;;;;;5432140;26;1466;-56
2024/04/16 10:17:13;;;;;;;;;;;;;;;;;;5465636;26;4761;-56
2024/04/16 10:19:38;;;;;;;;;;;;;;;;;;5469671;26;5245;-55
2024/04/16 10:22:04;;;;;;;;;;;;;;;;;;5463597;26;5188;-56
2024/04/16 10:24:29;;;;;;;;;;;;;;;;;;5448782;26;5216;-56
2024/04/16 10:26:56;;;;;;;;;;;;;;;;;;5478602;26;4506;-56
2024/04/16 10:29:24;;;;;;;;;;;;;;;;;;5481448;26;1171;-55
2024/04/16 10:31:50;;;;;;;;;;;;;;;;;;5454834;26;5065;-56
2024/04/16 10:34:19;;;;;;;;;;;;;;;;;;5477162;26;5114;-56
2024/04/16 10:36:44;;;;;;;;;;;;;;;;;;5480650;26;5204;-56
2024/04/16 10:39:10;;;;;;;;;;;;;;;;;;5486449;26;4655;-55
2024/04/16 10:41:35;;;;;;;;;;;;;;;;;;5470753;26;1497;-55
2024/04/16 10:44:01;;;;;;;;;;;;;;;;;;5488712;26;5120;-55
2024/04/16 10:46:26;;;;;;;;;;;;;;;;;;5455433;26;5227;-56
2024/04/16 10:48:52;;;;;;;;;;;;;;;;;;5440804;26;5255;-56
2024/04/16 10:51:17;;;;;;;;;;;;;;;;;;5487142;26;4517;-55
2024/04/16 10:53:43;;;;;;;;;;;;;;;;;;5488739;26;1425;-55
2024/04/16 10:56:11;;;;;;;;;;;;;;;;;;5478216;26;4764;-56
2024/04/16 10:58:36;;;;;;;;;;;;;;;;;;5488442;26;4481;-56
2024/04/16 11:01:02;;;;;;;;;;;;;;;;;;5487645;26;4650;-56
2024/04/16 11:03:27;;;;;;;;;;;;;;;;;;5470089;26;4544;-55
2024/04/16 11:05:54;;;;;;;;;;;;;;;;;;5441408;26;4609;-56
2024/04/16 11:08:20;;;;;;;;;;;;;;;;;;5456112;26;1447;-54
2024/04/16 11:10:49;;;;;;;;;;;;;;;;;;5487153;26;5097;-53
2024/04/16 11:13:15;;;;;;;;;;;;;;;;;;5487159;26;5085;-54
2024/04/16 11:15:40;;;;;;;;;;;;;;;;;;5485922;26;5158;-52
2024/04/16 11:18:06;;;;;;;;;;;;;;;;;;5486280;26;4597;-56
2024/04/16 11:20:31;;;;;;;;;;;;;;;;;;5486876;26;1785;-57
2024/04/16 11:22:57;;;;;;;;;;;;;;;;;;5498998;26;4621;-55
2024/04/16 11:25:23;;;;;;;;;;;;;;;;;;5519889;25;5244;-55
2024/04/16 11:27:48;;;;;;;;;;;;;;;;;;5524795;26;5206;-54
2024/04/16 11:30:13;;;;;;;;;;;;;;;;;;5509664;26;5007;-53
2024/04/16 11:32:39;;;;;;;;;;;;;;;;;;5493450;25;1275;-57
2024/04/16 11:35:08;;;;;;;;;;;;;;;;;;5486017;25;5061;-56
2024/04/16 11:37:39;;;;;;;;;;;;;;;;;;5484671;26;4617;-54
2024/04/16 11:40:05;;;;;;;;;;;;;;;;;;5521294;25;4518;-55
2024/04/16 11:42:30;;;;;;;;;;;;;;;;;;5533181;25;4636;-54
2024/04/16 11:44:55;;;;;;;;;;;;;;;;;;5521681;25;5172;-54
2024/04/16 11:47:21;;;;;;;;;;;;;;;;;;5510711;26;1401;-54
2024/04/16 11:49:46;;;;;;;;;;;;;;;;;;5504336;26;5080;-55
2024/04/16 11:52:11;;;;;;;;;;;;;;;;;;5519130;26;5148;-53
2024/04/16 11:54:37;;;;;;;;;;;;;;;;;;5472605;26;5228;-54
2024/04/16 11:57:03;;;;;;;;;;;;;;;;;;5515967;26;5114;-54
2024/04/16 11:59:28;;;;;;;;;;;;;;;;;;5516913;25;1398;-53
2024/04/16 12:01:54;;;;;;;;;;;;;;;;;;5518611;25;5074;-54
2024/04/16 12:04:19;;;;;;;;;;;;;;;;;;5516369;26;5221;-54
2024/04/16 12:06:45;;;;;;;;;;;;;;;;;;5516993;25;5063;-55
2024/04/16 12:09:10;;;;;;;;;;;;;;;;;;5509044;26;5084;-54
2024/04/16 12:11:35;;;;;;;;;;;;;;;;;;5498216;26;1500;-54
2024/04/16 12:14:01;;;;;;;;;;;;;;;;;;5513585;26;4988;-54
2024/04/16 12:16:26;;;;;;;;;;;;;;;;;;5516995;26;5339;-56
2024/04/16 12:18:53;;;;;;;;;;;;;;;;;;5518728;25;4551;-55
2024/04/16 12:21:19;;;;;;;;;;;;;;;;;;5502662;25;4734;-55
2024/04/16 12:23:47;;;;;;;;;;;;;;;;;;5461964;26;1387;-56
2024/04/16 12:26:12;;;;;;;;;;;;;;;;;;5455792;26;5248;-56
2024/04/16 12:28:38;;;;;;;;;;;;;;;;;;5456839;26;4826;-56
2024/04/16 12:31:03;;;;;;;;;;;;;;;;;;5456607;26;4649;-56
2024/04/16 12:33:28;;;;;;;;;;;;;;;;;;5456543;26;5179;-56
2024/04/16 12:35:54;;;;;;;;;;;;;;;;;;5459631;26;5244;-53
2024/04/16 12:38:19;;;;;;;;;;;;;;;;;;5461209;26;2934;-56
2024/04/16 12:40:46;;;;;;;;;;;;;;;;;;5452773;26;5173;-56
2024/04/16 12:43:11;;;;;;;;;;;;;;;;;;5457575;26;5220;-56
2024/04/16 12:45:37;;;;;;;;;;;;;;;;;;5463031;26;5676;-55
2024/04/16 12:48:03;;;;;;;;;;;;;;;;;;5465581;26;4671;-53
2024/04/16 12:50:28;;;;;;;;;;;;;;;;;;5465211;26;2034;-57
2024/04/16 12:52:54;;;;;;;;;;;;;;;;;;5429187;26;5200;-56
2024/04/16 12:55:19;;;;;;;;;;;;;;;;;;5431809;26;5226;-56
2024/04/16 12:57:45;;;;;;;;;;;;;;;;;;5457651;26;5096;-57
2024/04/16 13:00:11;;;;;;;;;;;;;;;;;;5446406;26;5118;-57
2024/04/16 13:02:37;;;;;;;;;;;;;;;;;;5465262;26;1880;-56
2024/04/16 13:05:02;;;;;;;;;;;;;;;;;;5464201;26;4663;-54
2024/04/16 13:07:27;;;;;;;;;;;;;;;;;;5445978;26;5276;-54
2024/04/16 13:09:54;;;;;;;;;;;;;;;;;;5454528;26;5265;-55
2024/04/16 13:12:19;;;;;;;;;;;;;;;;;;5446993;26;5186;-55
2024/04/16 13:14:45;;;;;;;;;;;;;;;;;;5465745;26;1363;-56
2024/04/16 13:17:10;;;;;;;;;;;;;;;;;;5471373;26;4494;-56
2024/04/16 13:19:35;;;;;;;;;;;;;;;;;;5479321;26;4477;-55
2024/04/16 13:22:01;;;;;;;;;;;;;;;;;;5467563;26;5102;-55
2024/04/16 13:24:26;;;;;;;;;;;;;;;;;;5480723;26;5074;-56
2024/04/16 13:26:52;;;;;;;;;;;;;;;;;;5476849;26;4490;-56
2024/04/16 13:29:17;;;;;;;;;;;;;;;;;;5474442;26;1292;-55
2024/04/16 13:31:42;;;;;;;;;;;;;;;;;;5476919;26;5048;-55
2024/04/16 13:34:08;;;;;;;;;;;;;;;;;;5474782;26;4595;-55
2024/04/16 13:36:33;;;;;;;;;;;;;;;;;;5466896;26;5168;-55
2024/04/16 13:38:58;;;;;;;;;;;;;;;;;;5481021;26;5070;-55
2024/04/16 13:41:24;;;;;;;;;;;;;;;;;;5479618;26;1551;-55
2024/04/16 13:43:49;;;;;;;;;;;;;;;;;;5478263;26;5249;-56
2024/04/16 13:46:14;;;;;;;;;;;;;;;;;;5483185;26;5269;-54
2024/04/16 13:48:40;;;;;;;;;;;;;;;;;;5481022;26;4739;-55
2024/04/16 13:51:05;;;;;;;;;;;;;;;;;;5480520;26;4521;-54
2024/04/16 13:53:31;;;;;;;;;;;;;;;;;;5482430;26;1318;-55
2024/04/16 13:55:57;;;;;;;;;;;;;;;;;;5433227;26;5077;-56
2024/04/16 13:58:23;;;;;;;;;;;;;;;;;;5477182;26;5080;-55
2024/04/16 14:00:48;;;;;;;;;;;;;;;;;;5483728;26;4579;-55
2024/04/16 14:03:13;;;;;;;;;;;;;;;;;;5481268;26;4861;-56
2024/04/16 14:05:39;;;;;;;;;;;;;;;;;;5446251;26;1833;-55
2024/04/16 14:08:04;;;;;;;;;;;;;;;;;;5480524;26;5156;-56
2024/04/16 14:10:30;;;;;;;;;;;;;;;;;;5475784;26;5121;-56
2024/04/16 14:12:55;;;;;;;;;;;;;;;;;;5463781;26;5254;-56
2024/04/16 14:15:21;;;;;;;;;;;;;;;;;;5479952;26;5095;-55
2024/04/16 14:17:47;;;;;;;;;;;;;;;;;;5473687;26;1209;-55
2024/04/16 14:20:12;;;;;;;;;;;;;;;;;;5480585;26;4561;-56
2024/04/16 14:22:38;;;;;;;;;;;;;;;;;;5479081;25;5157;-55
2024/04/16 14:25:03;;;;;;;;;;;;;;;;;;5422004;26;4665;-55
2024/04/16 14:27:29;;;;;;;;;;;;;;;;;;5420145;26;4578;-55
2024/04/16 14:29:54;;;;;;;;;;;;;;;;;;5453885;26;5142;-56
2024/04/16 14:32:20;;;;;;;;;;;;;;;;;;5463737;26;3353;-55
2024/04/16 14:34:45;;;;;;;;;;;;;;;;;;5451942;26;4711;-55
2024/04/16 14:37:10;;;;;;;;;;;;;;;;;;5451363;26;5299;-55
2024/04/16 14:39:36;;;;;;;;;;;;;;;;;;5455839;26;5743;-54
2024/04/16 14:42:01;;;;;;;;;;;;;;;;;;5462913;26;5312;-54
2024/04/16 14:44:27;;;;;;;;;;;;;;;;;;5459503;26;1892;-54
2024/04/16 14:46:54;;;;;;;;;;;;;;;;;;5460055;26;4679;-56
2024/04/16 14:49:19;;;;;;;;;;;;;;;;;;5449748;26;4640;-57
2024/04/16 14:51:48;;;;;;;;;;;;;;;;;;5469471;26;5105;-55
2024/04/16 14:54:13;;;;;;;;;;;;;;;;;;5462646;26;5376;-55
2024/04/16 14:56:38;;;;;;;;;;;;;;;;;;5461964;26;1505;-54
2024/04/16 14:59:04;;;;;;;;;;;;;;;;;;5457080;26;5086;-55
2024/04/16 15:01:29;;;;;;;;;;;;;;;;;;5450560;26;5096;-55
2024/04/16 15:03:55;;;;;;;;;;;;;;;;;;5442422;26;5230;-55
2024/04/16 15:06:21;;;;;;;;;;;;;;;;;;5450494;26;5171;-55
2024/04/16 15:08:46;;;;;;;;;;;;;;;;;;5456918;26;1274;-55
2024/04/16 15:11:11;;;;;;;;;;;;;;;;;;5420269;26;5164;-52
2024/04/16 15:13:37;;;;;;;;;;;;;;;;;;5435717;26;4531;-56
2024/04/16 15:16:02;;;;;;;;;;;;;;;;;;5458317;26;5223;-54
2024/04/16 15:18:27;;;;;;;;;;;;;;;;;;5459004;26;4670;-55
2024/04/16 15:20:53;;;;;;;;;;;;;;;;;;5459570;26;5111;-55
2024/04/16 15:23:18;;;;;;;;;;;;;;;;;;5476897;26;1373;-55
2024/04/16 15:25:44;;;;;;;;;;;;;;;;;;5511577;26;5071;-54
2024/04/16 15:28:09;;;;;;;;;;;;;;;;;;5513134;26;5176;-55
2024/04/16 15:30:36;;;;;;;;;;;;;;;;;;5514888;26;5060;-56
2024/04/16 15:33:01;;;;;;;;;;;;;;;;;;5475847;26;4668;-54
2024/04/16 15:35:27;;;;;;;;;;;;;;;;;;5510154;26;1459;-53
2024/04/16 15:37:53;;;;;;;;;;;;;;;;;;5517534;26;4926;-55
2024/04/16 15:40:18;;;;;;;;;;;;;;;;;;5507033;26;5240;-55
2024/04/16 15:42:43;;;;;;;;;;;;;;;;;;5507685;26;5090;-55
2024/04/16 15:45:09;;;;;;;;;;;;;;;;;;5513542;25;4550;-54
2024/04/16 15:47:34;;;;;;;;;;;;;;;;;;5511394;26;1243;-52
2024/04/16 15:49:59;;;;;;;;;;;;;;;;;;5502790;26;4716;-53
2024/04/16 15:52:25;;;;;;;;;;;;;;;;;;5504766;26;5193;-53
2024/04/16 15:54:50;;;;;;;;;;;;;;;;;;5501874;26;5024;-51
2024/04/16 15:57:16;;;;;;;;;;;;;;;;;;5515663;26;5218;-53
2024/04/16 15:59:42;;;;;;;;;;;;;;;;;;5487526;26;1346;-53
2024/04/16 16:02:07;;;;;;;;;;;;;;;;;;5493348;26;5135;-52
2024/04/16 16:04:33;;;;;;;;;;;;;;;;;;5496902;26;5153;-52
2024/04/16 16:06:58;;;;;;;;;;;;;;;;;;5483077;25;5113;-53
2024/04/16 16:09:23;;;;;;;;;;;;;;;;;;5499268;25;5114;-55
2024/04/16 16:11:49;;;;;;;;;;;;;;;;;;5503543;26;5095;-52
2024/04/16 16:14:16;;;;;;;;;;;;;;;;;;5495856;26;1294;-53
2024/04/16 16:16:41;;;;;;;;;;;;;;;;;;5475674;26;5107;-55
2024/04/16 16:19:07;;;;;;;;;;;;;;;;;;5510735;26;5152;-55
2024/04/16 16:21:32;;;;;;;;;;;;;;;;;;5504820;25;4512;-54
2024/04/16 16:23:57;;;;;;;;;;;;;;;;;;5501481;26;5087;-54
2024/04/16 16:26:23;;;;;;;;;;;;;;;;;;5495367;26;1350;-53
2024/04/16 16:28:48;;;;;;;;;;;;;;;;;;5516404;26;5198;-54
2024/04/16 16:31:14;;;;;;;;;;;;;;;;;;5495893;26;5293;-55
2024/04/16 16:33:40;;;;;;;;;;;;;;;;;;5489103;26;5157;-54
2024/04/16 16:36:05;;;;;;;;;;;;;;;;;;5502424;26;4559;-53
2024/04/16 16:38:31;;;;;;;;;;;;;;;;;;5511311;26;1477;-54
2024/04/16 16:40:57;;;;;;;;;;;;;;;;;;5495671;26;4996;-52
2024/04/16 16:43:22;;;;;;;;;;;;;;;;;;5517369;26;5091;-53
2024/04/16 16:45:48;;;;;;;;;;;;;;;;;;5501582;26;5050;-54
2024/04/16 16:48:14;;;;;;;;;;;;;;;;;;5494773;26;4739;-51
2024/04/16 16:50:39;;;;;;;;;;;;;;;;;;5510816;26;1834;-54
2024/04/16 16:53:05;;;;;;;;;;;;;;;;;;5505411;26;4616;-53